createdAt,value
2022-12-09T00:01:17.341Z,12.18
2022-12-09T00:03:45.892Z,12.00
2022-12-09T00:06:17.456Z,10.77
2022-12-09T00:08:46.382Z,11.23
2022-12-09T00:11:15.141Z,11.18
2022-12-09T00:13:43.610Z,11.95
2022-12-09T00:16:14.848Z,12.52
2022-12-09T00:18:44.322Z,11.60
2022-12-09T00:21:16.298Z,11.55
2022-12-09T00:23:44.449Z,11.68
2022-12-09T00:26:12.896Z,12.18
2022-12-09T00:28:41.655Z,12.52
2022-12-09T00:31:13.699Z,12.15
2022-12-09T00:33:42.289Z,12.45
2022-12-09T00:36:14.465Z,12.25
2022-12-09T00:38:43.407Z,12.55
2022-12-09T00:41:12.179Z,12.15
2022-12-09T00:43:43.374Z,12.52
2022-12-09T00:46:13.924Z,11.75
2022-12-09T00:48:42.737Z,12.63
2022-12-09T00:51:14.581Z,11.57
2022-12-09T00:53:43.634Z,10.88
2022-12-09T00:56:12.098Z,12.65
2022-12-09T00:58:40.394Z,12.00
2022-12-09T01:01:09.791Z,12.48
2022-12-09T01:03:40.524Z,12.18
2022-12-09T01:06:13.010Z,12.02
2022-12-09T01:08:43.647Z,12.50
2022-12-09T01:11:15.192Z,11.88
2022-12-09T01:13:43.466Z,11.55
2022-12-09T01:16:16.595Z,11.20
2022-12-09T01:18:46.620Z,11.23
2022-12-09T01:21:15.243Z,12.20
2022-12-09T01:23:43.820Z,11.77
2022-12-09T01:26:12.102Z,12.05
2022-12-09T01:28:40.997Z,11.57
2022-12-09T01:31:12.545Z,11.50
2022-12-09T01:33:46.507Z,11.88
2022-12-09T01:36:17.494Z,11.75
2022-12-09T01:38:46.609Z,11.93
2022-12-09T01:41:15.535Z,12.20
2022-12-09T01:43:43.964Z,12.50
2022-12-09T01:46:12.308Z,12.88
2022-12-09T01:48:44.208Z,12.48
2022-12-09T01:51:20.411Z,12.57
2022-12-09T01:53:51.587Z,13.30
2022-12-09T01:56:23.738Z,12.20
2022-12-09T01:58:53.802Z,11.90
2022-12-09T02:01:22.792Z,12.30
2022-12-09T02:03:53.613Z,13.43
2022-12-09T02:06:23.351Z,12.88
2022-12-09T02:08:54.969Z,12.40
2022-12-09T02:11:32.771Z,11.32
2022-12-09T02:14:06.119Z,10.93
2022-12-09T02:16:42.056Z,11.40
2022-12-09T02:19:22.684Z,11.20
2022-12-09T02:22:00.061Z,11.55
2022-12-09T02:24:37.468Z,10.93
2022-12-09T02:27:16.494Z,12.73
2022-12-09T02:30:12.292Z,11.85
2022-12-09T02:33:12.763Z,12.48
2022-12-09T02:35:48.649Z,11.82
2022-12-09T02:38:22.313Z,12.38
2022-12-09T02:40:59.545Z,12.88
2022-12-09T02:43:31.849Z,12.10
2022-12-09T02:46:02.983Z,12.60
2022-12-09T02:48:37.130Z,13.75
2022-12-09T02:51:10.747Z,12.95
2022-12-09T02:53:41.414Z,12.27
2022-12-09T02:56:12.897Z,13.65
2022-12-09T02:58:41.634Z,13.73
2022-12-09T03:01:21.977Z,13.25
2022-12-09T03:03:51.357Z,14.13
2022-12-09T03:06:28.493Z,13.50
2022-12-09T03:09:03.986Z,12.27
2022-12-09T03:11:34.372Z,12.27
2022-12-09T03:14:07.023Z,12.85
2022-12-09T03:16:38.416Z,13.00
2022-12-09T03:19:11.245Z,12.90
2022-12-09T03:21:46.229Z,12.90
2022-12-09T03:24:19.501Z,12.48
2022-12-09T03:26:49.795Z,12.43
2022-12-09T03:29:20.986Z,12.52
2022-12-09T03:31:50.905Z,11.40
2022-12-09T03:34:24.608Z,12.60
2022-12-09T03:36:55.170Z,13.23
2022-12-09T03:39:27.934Z,11.68
2022-12-09T03:41:59.606Z,11.85
2022-12-09T03:44:36.276Z,11.70
2022-12-09T03:47:05.295Z,11.57
2022-12-09T03:49:33.929Z,12.30
2022-12-09T03:52:09.345Z,11.70
2022-12-09T03:54:44.603Z,11.57
2022-12-09T03:57:19.056Z,11.43
2022-12-09T03:59:55.327Z,10.73
2022-12-09T04:02:24.502Z,10.50
2022-12-09T04:04:53.238Z,10.00
2022-12-09T04:07:25.496Z,10.98
2022-12-09T04:09:53.698Z,10.32
2022-12-09T04:12:21.733Z,11.20
2022-12-09T04:14:49.758Z,10.13
2022-12-09T04:17:18.131Z,10.15
2022-12-09T04:19:46.643Z,10.27
2022-12-09T04:22:15.217Z,10.57
2022-12-09T04:24:45.325Z,9.15
2022-12-09T04:27:13.926Z,10.20
2022-12-09T04:29:42.278Z,9.93
2022-12-09T04:32:10.589Z,10.10
2022-12-09T04:34:39.457Z,10.38
2022-12-09T04:37:09.993Z,10.27
2022-12-09T04:39:41.787Z,9.95
2022-12-09T04:42:11.624Z,9.93
2022-12-09T04:44:39.937Z,9.68
2022-12-09T04:47:08.107Z,10.40
2022-12-09T04:49:36.337Z,10.15
2022-12-09T04:52:04.704Z,9.70
2022-12-09T04:54:33.966Z,9.60
2022-12-09T04:57:02.446Z,10.52
2022-12-09T04:59:33.709Z,9.32
2022-12-09T05:02:02.320Z,9.63
2022-12-09T05:04:30.633Z,9.95
2022-12-09T05:06:59.495Z,9.93
2022-12-09T05:09:30.359Z,9.52
2022-12-09T05:11:58.832Z,9.88
2022-12-09T05:14:27.022Z,9.38
2022-12-09T05:16:56.882Z,9.77
2022-12-09T05:19:25.952Z,10.70
2022-12-09T05:21:54.191Z,9.07
2022-12-09T05:24:22.417Z,9.43
2022-12-09T05:26:50.771Z,10.25
2022-12-09T05:29:22.758Z,9.00
2022-12-09T05:31:52.601Z,9.55
2022-12-09T05:34:22.660Z,9.60
2022-12-09T05:36:51.896Z,9.98
2022-12-09T05:39:20.439Z,9.80
2022-12-09T05:41:49.562Z,9.35
2022-12-09T05:44:18.302Z,9.43
2022-12-09T05:46:47.015Z,9.27
2022-12-09T05:49:15.533Z,10.05
2022-12-09T05:51:46.030Z,8.88
2022-12-09T05:54:14.485Z,9.48
2022-12-09T05:56:47.832Z,10.70
2022-12-09T05:59:16.450Z,9.50
2022-12-09T06:01:44.673Z,9.02
2022-12-09T06:04:16.253Z,10.30
2022-12-09T06:06:46.127Z,10.88
2022-12-09T06:09:14.785Z,8.93
2022-12-09T06:11:43.262Z,9.82
2022-12-09T06:14:14.433Z,11.70
2022-12-09T06:16:43.176Z,10.15
2022-12-09T06:19:13.315Z,11.10
2022-12-09T06:21:43.042Z,10.93
2022-12-09T06:24:13.058Z,11.50
2022-12-09T06:26:43.604Z,10.02
2022-12-09T06:29:12.264Z,9.93
2022-12-09T06:31:40.883Z,10.02
2022-12-09T06:34:09.829Z,9.93
2022-12-09T06:36:38.657Z,10.48
2022-12-09T06:39:10.484Z,11.63
2022-12-09T06:41:42.127Z,10.65
2022-12-09T06:44:15.663Z,11.02
2022-12-09T06:49:16.627Z,11.43
2022-12-09T06:51:45.549Z,11.55
2022-12-09T06:54:14.158Z,14.18
2022-12-09T06:56:44.221Z,13.00
2022-12-09T06:59:13.140Z,12.32
2022-12-09T07:01:41.874Z,11.80
2022-12-09T07:04:14.787Z,12.80
2022-12-09T07:06:47.088Z,12.65
2022-12-09T07:09:17.712Z,14.27
2022-12-09T07:11:48.888Z,13.73
2022-12-09T07:14:19.362Z,14.20
2022-12-09T07:16:48.132Z,16.00
2022-12-09T07:19:19.021Z,13.35
2022-12-09T07:21:47.892Z,13.73
2022-12-09T07:24:20.249Z,13.25
2022-12-09T07:26:51.434Z,15.07
2022-12-09T07:29:20.114Z,15.88
2022-12-09T07:31:49.497Z,13.63
2022-12-09T07:34:18.577Z,15.30
2022-12-09T07:36:47.359Z,14.98
2022-12-09T07:39:17.823Z,15.00
2022-12-09T07:41:48.612Z,14.40
2022-12-09T07:44:18.738Z,14.73
2022-12-09T07:46:47.926Z,16.17
2022-12-09T07:49:16.928Z,15.27
2022-12-09T07:51:45.889Z,14.90
2022-12-09T07:54:15.290Z,15.50
2022-12-09T07:56:43.577Z,15.77
2022-12-09T07:59:14.515Z,14.88
2022-12-09T08:01:44.671Z,14.68
2022-12-09T08:04:14.317Z,14.63
2022-12-09T08:06:42.910Z,15.20
2022-12-09T08:09:14.943Z,15.18
2022-12-09T08:11:43.563Z,14.88
2022-12-09T08:14:13.445Z,17.10
2022-12-09T08:16:44.145Z,16.17
2022-12-09T08:19:15.617Z,17.45
2022-12-09T08:21:45.536Z,17.25
2022-12-09T08:24:16.649Z,16.40
2022-12-09T08:26:45.233Z,17.85
2022-12-09T08:29:15.159Z,17.25
2022-12-09T08:31:45.646Z,18.90
2022-12-09T08:34:14.403Z,20.50
2022-12-09T08:36:43.703Z,16.35
2022-12-09T08:39:13.324Z,19.02
2022-12-09T08:41:41.880Z,19.73
2022-12-09T08:44:12.803Z,17.65
2022-12-09T08:46:42.888Z,17.73
2022-12-09T08:49:13.579Z,19.23
2022-12-09T08:51:42.041Z,18.23
2022-12-09T08:54:10.708Z,18.15
2022-12-09T08:56:39.438Z,16.98
2022-12-09T08:59:08.297Z,16.73
2022-12-09T09:01:36.624Z,18.30
2022-12-09T09:04:07.869Z,15.07
2022-12-09T09:06:39.334Z,16.58
2022-12-09T09:09:09.064Z,16.58
2022-12-09T09:11:38.514Z,16.70
2022-12-09T09:14:08.490Z,15.20
2022-12-09T09:16:38.986Z,16.65
2022-12-09T09:19:08.770Z,15.65
2022-12-09T09:21:39.341Z,17.48
2022-12-09T09:24:10.960Z,17.08
2022-12-09T09:26:41.644Z,15.52
2022-12-09T09:29:11.808Z,16.45
2022-12-09T09:31:40.921Z,18.63
2022-12-09T09:34:10.203Z,17.10
2022-12-09T09:36:41.359Z,16.95
2022-12-09T09:39:10.637Z,17.08
2022-12-09T09:41:48.784Z,16.30
2022-12-09T09:44:23.278Z,16.15
2022-12-09T09:46:54.380Z,14.98
2022-12-09T09:49:31.068Z,14.38
2022-12-09T09:52:05.289Z,15.13
2022-12-09T09:54:33.882Z,14.82
2022-12-09T09:57:08.470Z,15.00
2022-12-09T09:59:46.137Z,14.88
2022-12-09T10:02:19.982Z,15.43
2022-12-09T10:05:00.171Z,15.20
2022-12-09T10:07:37.535Z,16.73
2022-12-09T10:12:51.734Z,12.50
2022-12-09T10:15:28.565Z,14.20
2022-12-09T10:18:13.713Z,14.88
2022-12-09T10:20:43.422Z,13.65
2022-12-09T10:23:16.680Z,14.13
2022-12-09T10:25:50.100Z,12.55
2022-12-09T10:28:23.049Z,13.45
2022-12-09T10:30:53.599Z,12.25
2022-12-09T10:33:28.447Z,13.07
2022-12-09T10:35:57.611Z,11.95
2022-12-09T10:38:28.179Z,12.05
2022-12-09T10:41:04.404Z,11.15
2022-12-09T10:43:38.748Z,11.98
2022-12-09T10:46:19.892Z,11.48
2022-12-09T10:48:56.217Z,11.82
2022-12-09T10:51:27.045Z,11.77
2022-12-09T10:54:01.818Z,10.60
2022-12-09T10:56:35.074Z,10.65
2022-12-09T10:59:24.013Z,10.68
2022-12-09T11:01:56.903Z,10.55
2022-12-09T11:04:27.331Z,10.23
2022-12-09T11:07:00.144Z,9.88
2022-12-09T11:09:33.455Z,9.82
2022-12-09T11:12:03.391Z,9.60
2022-12-09T11:14:36.864Z,8.95
2022-12-09T11:17:17.818Z,9.18
2022-12-09T11:19:50.733Z,8.07
2022-12-09T11:22:39.172Z,8.73
2022-12-09T11:25:23.824Z,10.38
2022-12-09T11:27:55.403Z,8.65
2022-12-09T11:30:26.924Z,7.82
2022-12-09T11:33:06.861Z,8.35
2022-12-09T11:35:52.837Z,14.00
2022-12-09T11:38:36.922Z,7.93
2022-12-09T11:41:15.259Z,6.60
2022-12-09T11:43:45.799Z,5.82
2022-12-09T11:46:22.247Z,6.18
2022-12-09T11:48:55.795Z,6.45
2022-12-09T11:51:26.668Z,6.50
2022-12-09T11:54:03.665Z,6.55
2022-12-09T11:56:35.701Z,6.57
2022-12-09T11:59:10.251Z,6.55
2022-12-09T12:01:48.316Z,5.88
2022-12-09T12:04:21.229Z,6.13
2022-12-09T12:06:57.499Z,5.80
2022-12-09T12:09:32.936Z,6.00
2022-12-09T12:12:08.439Z,6.35
2022-12-09T12:14:39.633Z,6.00
2022-12-09T12:17:18.409Z,6.53
2022-12-09T12:19:49.811Z,5.53
2022-12-09T12:22:35.549Z,5.97
2022-12-09T12:25:25.783Z,5.47
2022-12-09T12:28:17.462Z,6.40
2022-12-09T12:30:51.335Z,5.28
2022-12-09T12:36:30.096Z,5.72
2022-12-09T12:39:09.020Z,5.05
2022-12-09T12:41:46.879Z,5.68
2022-12-09T12:44:48.003Z,5.05
2022-12-09T12:47:24.779Z,5.03
2022-12-09T12:50:16.579Z,5.30
2022-12-09T12:52:57.609Z,5.20
2022-12-09T12:55:43.477Z,5.38
2022-12-09T12:58:18.049Z,5.65
2022-12-09T13:01:03.490Z,4.70
2022-12-09T13:03:39.805Z,4.68
2022-12-09T13:06:14.846Z,4.95
2022-12-09T13:08:49.605Z,5.15
2022-12-09T13:11:20.932Z,4.75
2022-12-09T13:13:55.206Z,4.82
2022-12-09T13:16:28.974Z,5.30
2022-12-09T13:19:06.918Z,4.60
2022-12-09T13:21:35.785Z,4.57
2022-12-09T13:24:19.532Z,4.57
2022-12-09T13:26:54.559Z,3.90
2022-12-09T13:29:34.613Z,4.60
2022-12-09T13:32:18.202Z,4.03
2022-12-09T13:34:51.408Z,4.68
2022-12-09T13:37:55.828Z,4.35
2022-12-09T13:40:36.652Z,4.35
2022-12-09T13:43:15.666Z,4.78
2022-12-09T13:45:55.348Z,5.07
2022-12-09T13:48:52.360Z,4.80
2022-12-09T13:51:21.600Z,5.38
2022-12-09T13:53:54.656Z,4.70
2022-12-09T13:56:30.606Z,4.90
2022-12-09T13:59:32.765Z,4.95
2022-12-09T14:02:04.826Z,5.03
2022-12-09T14:04:37.733Z,5.78
2022-12-09T14:07:15.766Z,5.70
2022-12-09T14:09:49.323Z,5.25
2022-12-09T14:12:57.308Z,5.53
2022-12-09T14:15:40.332Z,7.63
2022-12-09T14:18:30.376Z,10.50
2022-12-09T14:21:30.401Z,6.93
2022-12-09T14:24:36.708Z,6.00
2022-12-09T14:27:19.628Z,5.47
2022-12-09T14:29:51.403Z,5.28
2022-12-09T14:32:23.195Z,5.78
2022-12-09T14:35:02.865Z,5.15
2022-12-09T14:37:56.966Z,5.78
2022-12-09T14:40:46.868Z,5.57
2022-12-09T14:43:36.675Z,6.00
2022-12-09T14:46:07.271Z,5.22
2022-12-09T14:48:39.241Z,5.25
2022-12-09T14:51:10.593Z,5.63
2022-12-09T14:53:40.089Z,5.63
2022-12-09T14:56:08.919Z,5.50
2022-12-09T14:58:37.189Z,5.68
2022-12-09T15:01:06.919Z,6.20
2022-12-09T15:03:43.068Z,5.43
2022-12-09T15:06:18.659Z,5.90
2022-12-09T15:08:50.916Z,6.05
2022-12-09T15:11:24.920Z,6.72
2022-12-09T15:13:55.834Z,6.60
2022-12-09T15:16:27.183Z,6.43
2022-12-09T15:18:57.934Z,6.00
2022-12-09T15:21:29.515Z,6.82
2022-12-09T15:24:00.427Z,6.55
2022-12-09T15:26:30.283Z,7.10
2022-12-09T15:28:59.452Z,7.55
2022-12-09T15:31:29.255Z,7.05
2022-12-09T15:34:00.113Z,8.65
2022-12-09T15:36:33.199Z,7.57
2022-12-09T15:39:06.817Z,6.93
2022-12-09T15:41:57.400Z,7.00
2022-12-09T15:44:27.172Z,7.70
2022-12-09T15:46:58.040Z,6.93
2022-12-09T15:49:30.520Z,7.45
2022-12-09T15:51:59.248Z,10.25
2022-12-09T15:54:33.144Z,6.53
2022-12-09T15:57:05.515Z,7.30
2022-12-09T15:59:37.872Z,10.80
2022-12-09T16:02:06.736Z,7.35
2022-12-09T16:04:37.973Z,6.80
2022-12-09T16:07:07.274Z,6.53
2022-12-09T16:09:37.580Z,6.60
2022-12-09T16:12:06.627Z,7.53
2022-12-09T16:14:43.751Z,7.57
2022-12-09T16:17:22.330Z,6.95
2022-12-09T16:19:52.960Z,7.57
2022-12-09T16:22:25.055Z,7.78
2022-12-09T16:25:16.033Z,8.23
2022-12-09T16:27:48.683Z,8.10
2022-12-09T16:30:23.414Z,7.57
2022-12-09T16:32:53.009Z,8.23
2022-12-09T16:35:26.779Z,7.88
2022-12-09T16:38:17.317Z,8.45
2022-12-09T16:41:05.942Z,8.30
2022-12-09T16:43:35.271Z,7.75
2022-12-09T16:46:37.839Z,8.32
2022-12-09T16:49:06.644Z,8.80
2022-12-09T16:51:35.228Z,8.90
2022-12-09T16:54:03.560Z,8.27
2022-12-09T16:56:34.667Z,9.52
2022-12-09T16:59:02.753Z,10.27
2022-12-09T17:01:35.311Z,9.43
2022-12-09T17:04:08.678Z,9.77
2022-12-09T17:06:37.052Z,8.85
2022-12-09T17:09:05.512Z,8.85
2022-12-09T17:11:35.678Z,8.88
2022-12-09T17:14:04.262Z,8.55
2022-12-09T17:16:33.872Z,9.52
2022-12-09T17:19:08.439Z,8.40
2022-12-09T17:21:36.764Z,8.20
2022-12-09T17:24:05.531Z,8.45
2022-12-09T17:26:35.108Z,8.75
2022-12-09T17:29:03.479Z,8.98
2022-12-09T17:31:32.014Z,8.45
2022-12-09T17:34:00.454Z,7.50
2022-12-09T17:36:28.884Z,8.73
2022-12-09T17:39:01.238Z,8.20
2022-12-09T17:41:32.903Z,8.35
2022-12-09T17:44:05.021Z,8.57
2022-12-09T17:46:33.605Z,9.18
2022-12-09T17:49:03.088Z,8.52
2022-12-09T17:51:35.961Z,9.07
2022-12-09T17:54:05.062Z,8.70
2022-12-09T17:56:33.746Z,9.38
2022-12-09T17:59:08.625Z,9.13
2022-12-09T18:01:41.069Z,9.80
2022-12-09T18:04:11.171Z,10.40
2022-12-09T18:06:43.216Z,9.13
2022-12-09T18:09:13.425Z,10.45
2022-12-09T18:11:42.239Z,10.63
2022-12-09T18:14:11.861Z,9.68
2022-12-09T18:16:40.116Z,10.13
2022-12-09T18:19:12.891Z,10.15
2022-12-09T18:21:43.933Z,10.82
2022-12-09T18:24:12.764Z,10.18
2022-12-09T18:26:42.182Z,10.77
2022-12-09T18:29:12.973Z,11.50
2022-12-09T18:31:43.105Z,10.40
2022-12-09T18:34:11.549Z,11.32
2022-12-09T18:36:39.859Z,11.23
2022-12-09T18:39:08.275Z,12.30
2022-12-09T18:41:36.982Z,12.43
2022-12-09T18:44:07.689Z,10.88
2022-12-09T18:46:39.390Z,10.98
2022-12-09T18:49:12.661Z,12.25
2022-12-09T18:51:42.221Z,12.13
2022-12-09T18:54:15.581Z,12.05
2022-12-09T18:56:44.992Z,11.20
2022-12-09T18:59:15.434Z,11.15
2022-12-09T19:01:47.483Z,11.55
2022-12-09T19:04:17.190Z,11.90
2022-12-09T19:06:47.381Z,12.07
2022-12-09T19:09:17.874Z,10.95
2022-12-09T19:11:48.189Z,11.50
2022-12-09T19:14:19.255Z,11.63
2022-12-09T19:16:49.941Z,11.85
2022-12-09T19:19:24.671Z,11.50
2022-12-09T19:21:53.968Z,11.73
2022-12-09T19:24:25.268Z,12.02
2022-12-09T19:26:57.877Z,11.40
2022-12-09T19:29:28.010Z,10.85
2022-12-09T19:31:58.406Z,11.57
2022-12-09T19:34:28.217Z,11.90
2022-12-09T19:37:00.084Z,11.27
2022-12-09T19:39:31.319Z,11.30
2022-12-09T19:42:00.459Z,11.93
2022-12-09T19:45:00.745Z,11.27
2022-12-09T19:47:19.107Z,12.15
2022-12-09T19:49:47.341Z,11.90
2022-12-09T19:52:15.586Z,10.90
2022-12-09T19:54:44.942Z,11.75
2022-12-09T19:57:13.121Z,11.70
2022-12-09T19:59:41.623Z,12.68
2022-12-09T20:02:14.036Z,12.57
2022-12-09T20:04:51.389Z,13.38
2022-12-09T20:09:49.007Z,12.88
2022-12-09T20:12:19.931Z,12.50
2022-12-09T20:14:49.481Z,11.95
2022-12-09T20:17:17.777Z,12.80
2022-12-09T20:19:48.464Z,12.20
2022-12-09T20:22:16.772Z,12.43
2022-12-09T20:24:44.985Z,13.40
2022-12-09T20:27:15.243Z,13.55
2022-12-09T20:29:43.806Z,14.35
2022-12-09T20:32:14.601Z,12.88
2022-12-09T20:34:42.762Z,13.40
2022-12-09T20:37:14.704Z,12.98
2022-12-09T20:39:45.243Z,13.55
2022-12-09T20:42:13.415Z,12.80
2022-12-09T20:44:43.694Z,12.95
2022-12-09T20:47:11.881Z,13.00
2022-12-09T20:49:42.131Z,13.45
2022-12-09T20:52:10.386Z,15.50
2022-12-09T20:54:40.137Z,13.05
2022-12-09T20:57:10.788Z,14.00
2022-12-09T20:59:39.091Z,13.50
2022-12-09T21:02:13.440Z,13.70
2022-12-09T21:04:41.756Z,14.43
2022-12-09T21:07:09.978Z,13.70
2022-12-09T21:09:39.882Z,14.18
2022-12-09T21:12:08.218Z,13.88
2022-12-09T21:14:37.062Z,13.82
2022-12-09T21:17:05.306Z,14.23
2022-12-09T21:19:34.247Z,14.93
2022-12-09T21:22:03.999Z,14.93
2022-12-09T21:24:33.060Z,14.05
2022-12-09T21:27:02.528Z,14.63
2022-12-09T21:29:32.394Z,14.00
2022-12-09T21:32:02.206Z,14.15
2022-12-09T21:34:30.663Z,13.85
2022-12-09T21:36:58.980Z,14.20
2022-12-09T21:39:28.569Z,14.80
2022-12-09T21:41:56.777Z,14.43
2022-12-09T21:44:27.135Z,14.07
2022-12-09T21:46:55.622Z,14.13
2022-12-09T21:49:23.950Z,14.57
2022-12-09T21:51:52.141Z,14.80
2022-12-09T21:54:20.291Z,15.05
2022-12-09T21:56:50.491Z,14.10
2022-12-09T21:59:18.601Z,12.45
2022-12-09T22:01:50.555Z,14.35
2022-12-09T22:04:19.208Z,13.68
2022-12-09T22:06:48.519Z,15.13
2022-12-09T22:09:18.006Z,13.90
2022-12-09T22:11:46.197Z,12.48
2022-12-09T22:14:14.312Z,12.85
2022-12-09T22:16:44.223Z,13.63
2022-12-09T22:19:20.455Z,12.52
2022-12-09T22:21:49.031Z,12.40
2022-12-09T22:24:19.924Z,12.18
2022-12-09T22:26:48.006Z,12.88
2022-12-09T22:29:18.099Z,14.02
2022-12-09T22:31:47.360Z,13.38
2022-12-09T22:34:19.206Z,12.93
2022-12-09T22:36:47.977Z,12.90
2022-12-09T22:39:17.974Z,13.57
2022-12-09T22:41:47.507Z,14.15
2022-12-09T22:44:17.272Z,13.85
2022-12-09T22:46:45.945Z,13.32
2022-12-09T22:49:16.653Z,13.57
2022-12-09T22:51:45.973Z,13.00
2022-12-09T22:54:15.111Z,12.50
2022-12-09T22:56:44.410Z,13.20
2022-12-09T22:59:14.152Z,13.30
2022-12-09T23:01:43.763Z,12.80
2022-12-09T23:04:13.719Z,13.15
2022-12-09T23:06:43.812Z,12.70
2022-12-09T23:09:15.254Z,13.02
2022-12-09T23:11:43.536Z,12.80
2022-12-09T23:14:13.429Z,14.38
2022-12-09T23:16:41.802Z,14.40
2022-12-09T23:19:12.660Z,13.98
2022-12-09T23:21:43.127Z,15.38
2022-12-09T23:24:15.071Z,15.35
2022-12-09T23:26:44.976Z,16.33
2022-12-09T23:29:15.100Z,15.52
2022-12-09T23:31:43.942Z,15.07
2022-12-09T23:34:13.998Z,14.60
2022-12-09T23:36:45.021Z,14.32
2022-12-09T23:39:15.111Z,14.63
2022-12-09T23:41:46.371Z,14.90
2022-12-09T23:44:17.158Z,15.65
2022-12-09T23:46:47.323Z,15.52
2022-12-09T23:49:16.379Z,16.90
2022-12-09T23:51:48.287Z,16.10
2022-12-09T23:54:18.335Z,16.63
2022-12-09T23:56:50.647Z,16.60
2022-12-09T23:59:21.068Z,15.88
